Time;durP1;ratioP1;P1;durP2;ratioP2;P2;SDS_P1;SDS_P2;PMS_P1;PMS_P2;Temp;Humidity;BMP_temperature;BMP_pressure;BME280_temperature;BME280_humidity;BME280_pressure;Samples;Min_cycle;Max_cycle;Signal;HPM_P1;HPM_P2
2023/07/20 00:00:53;;;;;;;0.50;0.30;;;14.30;99.90;;;;;;5076417;28;20076;-65
2023/07/20 00:03:24;;;;;;;0.10;0.10;;;14.20;99.90;;;;;;5095571;28;20040;-65
2023/07/20 00:05:51;;;;;;;0.65;0.25;;;14.20;99.90;;;;;;5093068;28;20127;-65
2023/07/20 00:08:18;;;;;;;0.55;0.47;;;14.20;99.90;;;;;;5095417;28;20046;-65
2023/07/20 00:10:44;;;;;;;0.45;0.22;;;14.10;99.90;;;;;;5093823;28;20050;-65
2023/07/20 00:13:15;;;;;;;0.77;0.20;;;14.10;99.90;;;;;;5093848;28;20594;-64
2023/07/20 00:15:41;;;;;;;0.80;0.40;;;14.00;99.90;;;;;;5095009;28;20054;-65
2023/07/20 00:18:07;;;;;;;1.02;0.77;;;14.10;99.90;;;;;;5094092;28;20047;-65
2023/07/20 00:20:33;;;;;;;0.93;0.57;;;14.00;99.90;;;;;;5092952;28;20036;-65
2023/07/20 00:22:58;;;;;;;0.80;0.63;;;14.00;99.90;;;;;;5093525;28;20435;-65
2023/07/20 00:25:25;;;;;;;0.68;0.22;;;13.90;99.90;;;;;;5128408;27;20043;-65
2023/07/20 00:27:50;;;;;;;1.33;0.28;;;13.90;99.90;;;;;;5092472;28;20059;-65
2023/07/20 00:30:16;;;;;;;4.15;0.90;;;13.90;99.90;;;;;;5095210;28;20473;-65
2023/07/20 00:32:43;;;;;;;0.45;0.32;;;13.90;99.90;;;;;;5092935;28;20169;-65
2023/07/20 00:35:09;;;;;;;1.85;0.73;;;13.80;99.90;;;;;;5092664;28;20043;-65
2023/07/20 00:37:35;;;;;;;6.38;1.17;;;13.80;99.90;;;;;;5093061;28;20075;-65
2023/07/20 00:40:02;;;;;;;1.23;0.85;;;13.70;99.90;;;;;;5110637;28;20087;-65
2023/07/20 00:42:27;;;;;;;0.40;0.38;;;13.70;99.90;;;;;;5075653;28;20051;-65
2023/07/20 00:44:53;;;;;;;0.93;0.60;;;13.70;99.90;;;;;;5127268;27;20392;-65
2023/07/20 00:47:19;;;;;;;0.88;0.60;;;13.60;99.90;;;;;;5093271;28;20043;-65
2023/07/20 00:49:46;;;;;;;1.30;0.65;;;13.60;99.90;;;;;;5091916;28;20044;-65
2023/07/20 00:52:16;;;;;;;1.20;0.63;;;13.50;99.90;;;;;;5093577;28;20044;-65
2023/07/20 00:54:43;;;;;;;1.92;0.32;;;13.50;99.90;;;;;;5092953;28;20052;-65
2023/07/20 00:57:09;;;;;;;4.47;0.70;;;13.50;99.90;;;;;;5093643;28;20039;-65
2023/07/20 00:59:35;;;;;;;1.02;0.60;;;13.50;99.90;;;;;;5127096;27;20044;-65
2023/07/20 01:02:02;;;;;;;5.65;1.15;;;13.50;99.90;;;;;;5092495;28;20036;-65
2023/07/20 01:04:28;;;;;;;0.60;0.60;;;13.50;99.90;;;;;;5092678;28;20032;-65
2023/07/20 01:07:01;;;;;;;0.35;0.30;;;13.40;99.90;;;;;;5094051;28;20048;-65
2023/07/20 01:09:33;;;;;;;0.32;0.30;;;13.40;99.90;;;;;;5092343;28;20062;-65
2023/07/20 01:12:08;;;;;;;1.25;0.52;;;13.40;99.90;;;;;;5094103;28;20488;-65
2023/07/20 01:14:34;;;;;;;0.82;0.35;;;13.30;99.90;;;;;;5094131;28;20040;-65
2023/07/20 01:17:01;;;;;;;0.38;0.10;;;13.30;99.90;;;;;;5074738;28;20126;-65
2023/07/20 01:19:27;;;;;;;0.25;0.20;;;13.20;99.90;;;;;;5092634;28;20044;-65
2023/07/20 01:22:09;;;;;;;0.30;0.30;;;13.20;99.90;;;;;;5093570;28;20422;-65
2023/07/20 01:24:37;;;;;;;0.88;0.40;;;13.10;99.90;;;;;;5074809;28;20485;-65
2023/07/20 01:27:15;;;;;;;0.50;0.40;;;13.00;99.90;;;;;;5092364;28;20047;-65
2023/07/20 01:29:43;;;;;;;0.22;0.13;;;13.00;99.90;;;;;;5093603;28;20048;-65
2023/07/20 01:32:10;;;;;;;0.25;0.20;;;13.00;99.90;;;;;;5092075;28;20503;-65
2023/07/20 01:34:37;;;;;;;0.20;0.20;;;12.90;99.90;;;;;;5092653;28;20404;-65
2023/07/20 01:37:05;;;;;;;0.10;0.10;;;12.90;99.90;;;;;;5091777;28;20048;-65
2023/07/20 01:39:32;;;;;;;0.50;0.32;;;12.90;99.90;;;;;;5092233;28;20051;-65
2023/07/20 01:41:58;;;;;;;0.30;0.30;;;12.90;99.90;;;;;;5093702;28;20071;-65
2023/07/20 01:44:24;;;;;;;0.25;0.10;;;12.90;99.90;;;;;;5092887;28;20047;-65
2023/07/20 01:46:49;;;;;;;0.80;0.50;;;12.90;99.90;;;;;;5092870;28;20040;-65
2023/07/20 01:49:15;;;;;;;0.17;0.17;;;12.80;99.90;;;;;;5093165;28;20044;-65
2023/07/20 01:51:41;;;;;;;0.45;0.30;;;12.80;99.90;;;;;;5090712;28;20141;-65
2023/07/20 01:54:06;;;;;;;2.22;1.20;;;12.80;99.90;;;;;;5092373;28;20044;-65
2023/07/20 01:56:32;;;;;;;1.40;0.82;;;12.80;99.90;;;;;;5091945;28;20093;-64
2023/07/20 01:58:58;;;;;;;1.55;0.68;;;12.80;99.90;;;;;;5091180;28;20044;-65
2023/07/20 02:01:23;;;;;;;0.52;0.43;;;12.70;99.90;;;;;;5092119;28;20039;-65
2023/07/20 02:03:49;;;;;;;0.40;0.35;;;12.70;99.90;;;;;;5092915;28;20047;-65
2023/07/20 02:06:15;;;;;;;0.98;0.57;;;12.70;99.90;;;;;;5091162;28;20044;-65
2023/07/20 02:08:40;;;;;;;1.25;0.60;;;12.70;99.90;;;;;;5091269;28;20134;-65
2023/07/20 02:11:06;;;;;;;1.50;0.90;;;12.60;99.90;;;;;;5092036;28;20048;-65
2023/07/20 02:13:32;;;;;;;1.17;0.40;;;12.70;99.90;;;;;;5074018;28;20036;-65
2023/07/20 02:15:57;;;;;;;0.28;0.20;;;12.60;99.90;;;;;;5091681;28;20097;-65
2023/07/20 02:18:23;;;;;;;0.43;0.17;;;12.60;99.90;;;;;;5091477;28;20530;-65
2023/07/20 02:20:49;;;;;;;1.27;0.47;;;12.60;99.90;;;;;;5091640;28;20032;-65
2023/07/20 02:23:14;;;;;;;0.50;0.40;;;12.60;99.90;;;;;;5092999;28;20028;-65
2023/07/20 02:25:40;;;;;;;1.05;0.68;;;12.60;99.90;;;;;;5091138;28;20122;-65
2023/07/20 02:28:08;;;;;;;0.88;0.70;;;12.60;99.90;;;;;;5090873;28;20119;-65
2023/07/20 02:30:34;;;;;;;0.32;0.30;;;12.60;99.90;;;;;;5074408;28;20035;-65
2023/07/20 02:33:00;;;;;;;1.05;0.30;;;12.50;99.90;;;;;;5092467;28;20084;-65
2023/07/20 02:35:26;;;;;;;1.42;0.65;;;12.50;99.90;;;;;;5073780;28;20032;-65
2023/07/20 02:37:51;;;;;;;1.27;0.77;;;12.50;99.90;;;;;;5092364;28;20043;-65
2023/07/20 02:40:17;;;;;;;0.65;0.50;;;12.50;99.90;;;;;;5091376;28;20043;-65
2023/07/20 02:42:43;;;;;;;0.32;0.32;;;12.50;99.90;;;;;;5072876;28;20036;-65
2023/07/20 02:45:09;;;;;;;0.55;0.22;;;12.50;99.90;;;;;;5092842;28;20024;-65
2023/07/20 02:47:34;;;;;;;0.35;0.15;;;12.40;99.90;;;;;;5091418;28;20036;-65
2023/07/20 02:50:00;;;;;;;0.38;0.35;;;12.40;99.90;;;;;;5090827;28;20056;-65
2023/07/20 02:52:25;;;;;;;0.45;0.43;;;12.40;99.90;;;;;;5090869;28;20451;-65
2023/07/20 02:54:51;;;;;;;0.70;0.40;;;12.40;99.90;;;;;;5089909;28;20115;-65
2023/07/20 02:57:17;;;;;;;0.50;0.40;;;12.40;99.90;;;;;;5091382;28;20028;-65
2023/07/20 02:59:43;;;;;;;1.38;0.73;;;12.40;99.90;;;;;;5090613;28;20051;-65
2023/07/20 03:02:11;;;;;;;0.85;0.45;;;12.40;99.90;;;;;;5091511;28;20458;-65
2023/07/20 03:04:37;;;;;;;1.33;0.45;;;12.40;99.90;;;;;;5074213;28;20043;-65
2023/07/20 03:07:05;;;;;;;1.20;0.50;;;12.40;99.90;;;;;;5091403;28;20072;-65
2023/07/20 03:09:30;;;;;;;0.73;0.38;;;12.30;99.90;;;;;;5089878;28;20160;-65
2023/07/20 03:11:56;;;;;;;1.20;0.57;;;12.40;99.90;;;;;;5092239;28;20045;-65
2023/07/20 03:14:23;;;;;;;0.25;0.20;;;12.30;99.90;;;;;;5091118;28;20040;-65
2023/07/20 03:16:49;;;;;;;0.80;0.40;;;12.30;99.90;;;;;;5090910;28;20040;-65
2023/07/20 03:19:15;;;;;;;0.20;0.20;;;12.40;99.90;;;;;;5091089;28;20032;-65
2023/07/20 03:21:43;;;;;;;1.00;0.20;;;12.40;99.90;;;;;;5091839;28;20032;-65
2023/07/20 03:24:09;;;;;;;0.70;0.60;;;12.30;99.90;;;;;;5091710;28;20047;-65
2023/07/20 03:26:36;;;;;;;0.38;0.30;;;12.30;99.90;;;;;;5092036;28;20096;-65
2023/07/20 03:29:03;;;;;;;0.60;0.32;;;12.30;99.90;;;;;;5090707;28;20051;-65
2023/07/20 03:31:29;;;;;;;0.45;0.30;;;12.30;99.90;;;;;;5072969;28;20040;-65
2023/07/20 03:33:55;;;;;;;0.47;0.30;;;12.30;99.90;;;;;;5091831;28;20054;-65
2023/07/20 03:36:21;;;;;;;0.25;0.17;;;12.30;99.90;;;;;;5090671;28;20040;-65
2023/07/20 03:38:47;;;;;;;0.45;0.20;;;12.30;99.90;;;;;;5089656;28;20427;-65
2023/07/20 03:41:12;;;;;;;0.05;0.05;;;12.30;99.90;;;;;;5124817;28;20028;-65
2023/07/20 03:43:38;;;;;;;0.50;0.30;;;12.30;99.90;;;;;;5091569;28;20040;-65
2023/07/20 03:46:07;;;;;;;0.85;0.28;;;12.30;99.90;;;;;;5089563;28;20476;-65
2023/07/20 03:48:33;;;;;;;0.10;0.10;;;12.30;99.90;;;;;;5073386;28;20051;-65
2023/07/20 03:51:00;;;;;;;0.47;0.38;;;12.20;99.90;;;;;;5090746;28;20455;-65
2023/07/20 03:53:26;;;;;;;0.40;0.30;;;12.30;99.90;;;;;;5073945;28;20079;-65
2023/07/20 03:55:52;;;;;;;0.40;0.30;;;12.20;99.90;;;;;;5091396;28;20071;-65
2023/07/20 03:58:19;;;;;;;1.20;0.63;;;12.20;99.90;;;;;;5073497;28;20036;-65
2023/07/20 04:00:53;;;;;;;1.17;0.32;;;12.20;99.90;;;;;;5073310;28;20067;-65
2023/07/20 04:03:19;;;;;;;2.25;0.77;;;12.20;99.90;;;;;;5093379;28;20040;-65
2023/07/20 04:05:45;;;;;;;1.80;0.70;;;12.30;99.90;;;;;;5075735;28;20044;-66
2023/07/20 04:08:11;;;;;;;1.33;0.50;;;12.30;99.90;;;;;;5094308;28;20119;-65
2023/07/20 04:10:38;;;;;;;0.95;0.63;;;12.30;99.90;;;;;;5095431;28;20036;-65
2023/07/20 04:13:04;;;;;;;0.75;0.52;;;12.30;99.90;;;;;;5076022;28;20036;-65
2023/07/20 04:15:31;;;;;;;0.73;0.43;;;12.30;99.90;;;;;;5112514;27;20040;-65
2023/07/20 04:17:57;;;;;;;0.85;0.40;;;12.30;99.90;;;;;;5093869;28;20044;-65
2023/07/20 04:20:23;;;;;;;0.20;0.20;;;12.30;99.90;;;;;;5094650;28;20089;-65
2023/07/20 04:22:50;;;;;;;1.33;0.50;;;12.30;99.90;;;;;;5094982;28;20032;-65
2023/07/20 04:25:16;;;;;;;0.93;0.50;;;12.30;99.90;;;;;;5077064;28;20043;-65
2023/07/20 04:27:42;;;;;;;0.95;0.50;;;12.30;99.90;;;;;;5092615;28;20052;-65
2023/07/20 04:30:09;;;;;;;1.23;0.47;;;12.30;99.90;;;;;;5127832;27;20446;-66
2023/07/20 04:32:34;;;;;;;0.73;0.40;;;12.30;99.90;;;;;;5095134;28;20039;-65
2023/07/20 04:35:00;;;;;;;1.27;0.45;;;12.30;99.90;;;;;;5092675;28;20524;-65
2023/07/20 04:37:26;;;;;;;2.72;0.60;;;12.30;99.90;;;;;;5093614;28;20043;-65
2023/07/20 04:39:51;;;;;;;1.48;0.70;;;12.30;99.90;;;;;;5094597;28;20043;-65
2023/07/20 04:42:17;;;;;;;1.17;0.40;;;12.40;99.90;;;;;;5076177;28;20374;-65
2023/07/20 04:44:43;;;;;;;1.40;0.60;;;12.40;99.90;;;;;;5092602;28;20040;-65
2023/07/20 04:47:09;;;;;;;1.67;0.50;;;12.50;99.90;;;;;;5094141;28;20392;-65
2023/07/20 04:49:34;;;;;;;1.58;0.40;;;12.50;99.90;;;;;;5094469;28;20048;-66
2023/07/20 04:52:02;;;;;;;1.60;0.60;;;12.60;99.90;;;;;;5094692;28;20056;-65
2023/07/20 04:54:28;;;;;;;1.63;0.52;;;12.60;99.90;;;;;;5093173;28;20482;-66
2023/07/20 04:56:54;;;;;;;1.80;0.75;;;12.60;99.90;;;;;;5094215;28;20458;-65
2023/07/20 04:59:19;;;;;;;1.42;0.70;;;12.70;99.90;;;;;;5094546;28;20040;-66
2023/07/20 05:01:45;;;;;;;2.03;0.75;;;12.80;99.90;;;;;;5091807;28;20028;-66
2023/07/20 05:04:11;;;;;;;2.67;0.70;;;12.90;99.90;;;;;;5092897;28;20408;-66
2023/07/20 05:06:38;;;;;;;1.73;0.60;;;12.90;99.90;;;;;;5093106;28;20046;-66
2023/07/20 05:09:05;;;;;;;2.35;0.95;;;13.00;99.90;;;;;;5092188;28;20088;-65
2023/07/20 05:11:31;;;;;;;1.60;0.70;;;13.10;99.90;;;;;;5092912;28;20052;-65
2023/07/20 05:13:56;;;;;;;2.95;0.88;;;13.20;99.90;;;;;;5091813;28;20046;-66
2023/07/20 05:16:22;;;;;;;1.52;0.90;;;13.20;99.90;;;;;;5092265;28;20036;-66
2023/07/20 05:18:47;;;;;;;0.30;0.20;;;13.40;99.90;;;;;;5075560;28;20055;-66
2023/07/20 05:21:13;;;;;;;1.10;0.40;;;13.50;99.90;;;;;;5094365;28;20117;-66
2023/07/20 05:23:39;;;;;;;0.30;0.10;;;13.60;99.90;;;;;;5091621;28;20032;-66
2023/07/20 05:26:05;;;;;;;0.73;0.40;;;13.80;99.90;;;;;;5076019;28;20043;-65
2023/07/20 05:28:31;;;;;;;2.78;0.50;;;13.90;99.90;;;;;;5093614;28;20145;-65
2023/07/20 05:30:59;;;;;;;0.25;0.25;;;14.00;99.90;;;;;;5093179;28;20071;-65
2023/07/20 05:33:25;;;;;;;2.03;0.63;;;14.20;99.90;;;;;;5076093;28;20044;-66
2023/07/20 05:35:50;;;;;;;3.45;0.75;;;14.40;99.90;;;;;;5091768;28;20048;-65
2023/07/20 05:38:16;;;;;;;0.77;0.38;;;14.50;99.90;;;;;;5091763;28;20044;-65
2023/07/20 05:40:43;;;;;;;0.45;0.13;;;14.60;99.90;;;;;;5091398;28;20034;-66
2023/07/20 05:43:10;;;;;;;3.15;1.48;;;14.70;99.90;;;;;;5075241;28;20480;-65
2023/07/20 05:45:35;;;;;;;1.85;0.90;;;14.90;99.90;;;;;;5092799;28;20455;-65
2023/07/20 05:48:01;;;;;;;1.25;0.63;;;15.00;99.90;;;;;;5096577;28;20120;-65
2023/07/20 05:50:27;;;;;;;2.03;0.85;;;15.10;99.90;;;;;;5115593;27;20043;-65
2023/07/20 05:52:54;;;;;;;0.63;0.30;;;15.20;99.90;;;;;;5090753;28;20044;-66
2023/07/20 05:55:20;;;;;;;1.45;0.50;;;15.40;99.90;;;;;;5072631;28;20469;-65
2023/07/20 05:57:47;;;;;;;1.15;0.63;;;15.50;99.90;;;;;;5088009;28;20048;-66
2023/07/20 06:00:13;;;;;;;0.65;0.50;;;15.50;99.90;;;;;;5090807;28;20147;-66
2023/07/20 06:02:40;;;;;;;0.77;0.35;;;15.60;99.90;;;;;;5086306;28;20119;-66
2023/07/20 06:05:09;;;;;;;1.48;0.65;;;15.70;99.90;;;;;;5089176;28;20032;-66
2023/07/20 06:07:38;;;;;;;1.17;0.40;;;15.80;99.90;;;;;;5088845;28;20047;-66
2023/07/20 06:10:05;;;;;;;0.50;0.25;;;15.90;99.90;;;;;;5089333;28;20420;-66
2023/07/20 06:12:31;;;;;;;0.80;0.50;;;16.00;99.90;;;;;;5087708;28;20056;-66
2023/07/20 06:14:57;;;;;;;0.57;0.30;;;16.10;99.90;;;;;;5071415;28;20052;-66
2023/07/20 06:17:22;;;;;;;1.38;0.50;;;16.10;99.90;;;;;;5088227;28;20393;-65
2023/07/20 06:19:48;;;;;;;0.98;0.70;;;16.20;99.90;;;;;;5087629;28;20447;-65
2023/07/20 06:22:14;;;;;;;1.00;0.40;;;16.30;99.90;;;;;;5072164;28;20055;-66
2023/07/20 06:24:39;;;;;;;2.47;0.68;;;16.40;99.90;;;;;;5089422;28;20503;-66
2023/07/20 06:27:05;;;;;;;1.23;0.45;;;16.50;99.90;;;;;;5086758;28;20052;-66
2023/07/20 06:29:31;;;;;;;1.42;0.43;;;16.60;99.90;;;;;;5089783;28;20393;-66
2023/07/20 06:31:57;;;;;;;1.45;0.90;;;16.70;99.90;;;;;;5088248;28;20043;-66
2023/07/20 06:34:22;;;;;;;4.07;0.98;;;16.70;99.90;;;;;;5088080;28;20082;-66
2023/07/20 06:36:48;;;;;;;0.65;0.30;;;16.80;99.90;;;;;;5087636;28;20127;-66
2023/07/20 06:39:14;;;;;;;1.08;0.40;;;16.80;99.90;;;;;;5089010;28;20087;-66
2023/07/20 06:41:40;;;;;;;0.90;0.30;;;16.80;99.90;;;;;;5069546;28;20135;-66
2023/07/20 06:44:05;;;;;;;2.42;1.48;;;16.90;99.90;;;;;;5089674;28;20036;-66
2023/07/20 06:46:31;;;;;;;1.48;1.05;;;16.90;99.90;;;;;;5088390;28;20044;-66
2023/07/20 06:48:56;;;;;;;4.05;1.63;;;17.00;99.90;;;;;;5070420;28;20040;-66
2023/07/20 06:51:22;;;;;;;1.50;1.02;;;16.90;99.90;;;;;;5088559;28;20075;-66
2023/07/20 06:53:48;;;;;;;2.42;1.00;;;16.90;99.90;;;;;;5088270;28;20100;-66
2023/07/20 06:56:14;;;;;;;2.80;1.50;;;16.90;99.90;;;;;;5089537;28;20047;-66
2023/07/20 06:58:39;;;;;;;1.95;0.90;;;16.90;99.90;;;;;;5087139;28;20075;-65
2023/07/20 07:01:06;;;;;;;2.05;1.15;;;17.00;99.90;;;;;;5084888;28;20051;-62
2023/07/20 07:03:33;;;;;;;0.82;0.40;;;17.10;99.90;;;;;;5085720;28;20036;-62
2023/07/20 07:05:58;;;;;;;2.53;0.93;;;17.10;99.90;;;;;;5088064;28;20165;-62
2023/07/20 07:08:24;;;;;;;2.78;0.82;;;17.10;99.90;;;;;;5087521;28;20495;-62
2023/07/20 07:10:50;;;;;;;1.88;0.75;;;17.10;99.90;;;;;;5087210;28;20048;-62
2023/07/20 07:13:16;;;;;;;2.20;0.50;;;17.10;99.90;;;;;;5086262;28;20081;-62
2023/07/20 07:15:42;;;;;;;2.88;1.33;;;17.00;99.90;;;;;;5086798;28;20032;-62
2023/07/20 07:18:08;;;;;;;1.98;0.80;;;16.80;99.90;;;;;;5087496;28;20598;-62
2023/07/20 07:20:34;;;;;;;4.07;1.25;;;16.70;99.90;;;;;;5116133;28;20024;-62
2023/07/20 07:23:00;;;;;;;3.25;0.77;;;16.60;99.90;;;;;;5086203;28;20465;-63
2023/07/20 07:25:26;;;;;;;1.23;0.60;;;16.60;99.90;;;;;;5089026;28;20040;-63
2023/07/20 07:27:54;;;;;;;2.00;0.40;;;16.70;99.90;;;;;;5087520;28;20079;-62
2023/07/20 07:30:20;;;;;;;3.05;1.50;;;16.80;99.90;;;;;;5086599;28;20101;-62
2023/07/20 07:32:46;;;;;;;2.55;1.20;;;17.00;99.90;;;;;;5087591;28;20057;-62
2023/07/20 07:35:12;;;;;;;1.77;0.95;;;17.10;99.90;;;;;;5088004;28;20052;-63
2023/07/20 07:37:38;;;;;;;4.60;1.58;;;17.30;99.90;;;;;;5089456;28;20439;-63
2023/07/20 07:40:06;;;;;;;5.75;1.90;;;17.50;99.90;;;;;;5074633;28;20115;-62
2023/07/20 07:42:32;;;;;;;3.95;1.33;;;17.80;99.90;;;;;;5073741;28;20044;-62
2023/07/20 07:44:58;;;;;;;6.28;1.75;;;18.00;99.90;;;;;;5073800;28;20039;-62
2023/07/20 07:47:23;;;;;;;5.25;1.67;;;17.90;99.90;;;;;;5091476;28;20047;-61
2023/07/20 07:49:49;;;;;;;4.85;1.48;;;17.70;99.90;;;;;;5091973;28;20040;-62
2023/07/20 07:52:15;;;;;;;3.83;1.48;;;17.60;99.90;;;;;;5092330;28;20099;-61
2023/07/20 07:54:41;;;;;;;9.73;2.33;;;17.60;99.90;;;;;;5090373;28;20031;-60
2023/07/20 07:57:07;;;;;;;4.90;1.83;;;17.60;99.90;;;;;;5092192;28;20050;-60
2023/07/20 07:59:36;;;;;;;4.82;1.38;;;17.70;99.90;;;;;;5111593;27;20097;-64
2023/07/20 08:02:04;;;;;;;2.05;1.02;;;17.70;99.90;;;;;;5092848;28;20043;-61
2023/07/20 08:04:30;;;;;;;3.95;1.10;;;17.60;99.90;;;;;;5091689;28;20047;-62
2023/07/20 08:06:56;;;;;;;2.88;1.08;;;17.50;99.90;;;;;;5091005;28;20036;-61
2023/07/20 08:09:21;;;;;;;4.00;1.00;;;17.30;99.90;;;;;;5074088;28;20070;-59
2023/07/20 08:11:48;;;;;;;3.55;0.90;;;17.30;99.90;;;;;;5090425;28;20040;-63
2023/07/20 08:14:13;;;;;;;3.35;1.00;;;17.40;99.90;;;;;;5074406;28;20464;-62
2023/07/20 08:16:39;;;;;;;4.65;0.90;;;17.60;99.90;;;;;;5090395;28;20089;-61
2023/07/20 08:19:05;;;;;;;3.47;0.85;;;17.70;99.90;;;;;;5091553;28;20610;-62
2023/07/20 08:21:30;;;;;;;2.00;0.75;;;17.90;99.90;;;;;;5108482;28;20043;-60
2023/07/20 08:23:56;;;;;;;1.70;0.70;;;18.10;99.90;;;;;;5094335;28;20071;-62
2023/07/20 08:26:23;;;;;;;2.38;1.05;;;18.20;99.90;;;;;;5122082;27;20432;-63
2023/07/20 08:28:49;;;;;;;5.13;1.00;;;18.20;99.90;;;;;;5093200;28;20111;-62
2023/07/20 08:31:15;;;;;;;2.65;0.70;;;18.20;99.90;;;;;;5094204;28;20135;-61
2023/07/20 08:33:40;;;;;;;3.95;1.08;;;18.30;99.90;;;;;;5093887;28;20377;-61
2023/07/20 08:36:06;;;;;;;5.50;0.80;;;18.30;99.90;;;;;;5094689;28;20032;-60
2023/07/20 08:38:32;;;;;;;3.08;0.82;;;18.30;99.90;;;;;;5093334;28;20573;-60
2023/07/20 08:40:59;;;;;;;2.83;0.68;;;18.30;99.90;;;;;;5092517;28;20480;-61
2023/07/20 08:43:25;;;;;;;2.63;0.88;;;18.50;99.90;;;;;;5093880;28;20046;-61
2023/07/20 08:45:54;;;;;;;3.45;0.80;;;18.50;99.90;;;;;;5092974;28;20138;-60
2023/07/20 08:48:20;;;;;;;3.25;0.80;;;18.70;99.90;;;;;;5091782;28;20044;-60
2023/07/20 08:50:50;;;;;;;5.65;1.08;;;18.80;99.90;;;;;;5091937;28;20044;-61
2023/07/20 08:53:16;;;;;;;2.78;0.93;;;18.80;99.90;;;;;;5094761;28;20040;-61
2023/07/20 08:55:46;;;;;;;3.90;0.70;;;18.90;99.90;;;;;;5093005;28;20070;-60
2023/07/20 08:58:14;;;;;;;1.52;0.65;;;18.80;99.90;;;;;;5095126;28;20048;-60
2023/07/20 09:00:41;;;;;;;1.95;0.70;;;18.60;99.90;;;;;;5093556;28;20039;-60
2023/07/20 09:03:08;;;;;;;2.28;0.80;;;18.40;99.90;;;;;;5092781;28;20032;-60
2023/07/20 09:05:35;;;;;;;5.18;1.05;;;18.40;99.90;;;;;;5092644;28;20070;-60
2023/07/20 09:08:03;;;;;;;1.70;0.60;;;18.60;99.90;;;;;;5092957;28;20458;-61
2023/07/20 09:10:29;;;;;;;1.95;0.50;;;18.80;99.90;;;;;;5093712;28;20040;-61
2023/07/20 09:12:55;;;;;;;2.83;0.70;;;18.80;99.90;;;;;;5094020;28;20093;-62
2023/07/20 09:15:22;;;;;;;3.13;1.05;;;18.70;99.90;;;;;;5092543;28;20048;-61
2023/07/20 09:17:53;;;;;;;4.53;0.95;;;18.60;99.90;;;;;;5093020;28;20441;-61
2023/07/20 09:20:19;;;;;;;2.17;0.85;;;18.50;99.90;;;;;;5092592;28;20036;-61
2023/07/20 09:22:45;;;;;;;1.60;0.82;;;18.50;99.90;;;;;;5091038;28;20124;-61
2023/07/20 09:25:22;;;;;;;4.05;0.80;;;18.70;99.90;;;;;;5075105;28;20044;-61
2023/07/20 09:27:49;;;;;;;4.70;1.10;;;18.80;99.90;;;;;;5075127;28;20051;-61
2023/07/20 09:30:16;;;;;;;2.20;0.90;;;19.00;99.90;;;;;;5107856;27;20446;-61
2023/07/20 09:32:50;;;;;;;2.30;0.77;;;19.20;99.90;;;;;;5088209;28;20062;-61
2023/07/20 09:35:21;;;;;;;2.50;0.93;;;19.40;99.90;;;;;;5093900;28;20100;-60
2023/07/20 09:37:54;;;;;;;5.38;1.00;;;19.40;99.90;;;;;;5090487;28;20119;-60
2023/07/20 09:40:20;;;;;;;4.80;1.20;;;19.20;99.90;;;;;;5092300;28;20040;-61
2023/07/20 09:42:47;;;;;;;3.58;1.10;;;18.90;99.90;;;;;;5090915;28;20088;-61
2023/07/20 09:45:13;;;;;;;3.22;1.05;;;18.90;99.90;;;;;;5092346;28;20036;-62
2023/07/20 09:47:39;;;;;;;4.43;1.13;;;19.10;99.90;;;;;;5091186;28;20039;-60
2023/07/20 09:50:12;;;;;;;1.45;0.77;;;19.30;99.90;;;;;;5091626;28;20157;-60
2023/07/20 09:52:49;;;;;;;2.20;0.82;;;19.50;99.90;;;;;;5093300;28;20401;-60
2023/07/20 09:55:15;;;;;;;1.73;0.90;;;19.60;99.90;;;;;;5093460;28;20051;-61
2023/07/20 09:57:41;;;;;;;2.17;0.95;;;19.40;99.90;;;;;;5090951;28;20047;-61
2023/07/20 10:00:12;;;;;;;2.00;0.88;;;19.40;99.90;;;;;;5093484;28;20040;-60
2023/07/20 10:02:44;;;;;;;4.30;1.50;;;19.40;99.90;;;;;;5091721;28;20036;-60
2023/07/20 10:05:14;;;;;;;2.60;1.05;;;19.40;99.90;;;;;;5091626;28;20412;-60
2023/07/20 10:07:46;;;;;;;5.13;1.25;;;19.40;99.90;;;;;;5092746;28;20035;-59
2023/07/20 10:10:14;;;;;;;3.65;1.15;;;19.50;99.10;;;;;;5075465;28;20047;-59
2023/07/20 10:12:42;;;;;;;7.03;1.30;;;19.50;99.20;;;;;;5090916;28;20048;-59
2023/07/20 10:15:22;;;;;;;4.47;1.13;;;19.70;99.40;;;;;;5091929;28;20047;-59
2023/07/20 10:18:28;;;;;;;2.50;1.10;;;20.00;99.60;;;;;;5090505;28;20050;-59
2023/07/20 10:20:54;;;;;;;;;;;20.10;98.90;;;;;;5093460;28;20119;-59
2023/07/20 10:23:20;;;;;;;3.70;1.17;;;20.10;98.10;;;;;;5091731;28;19916;-59
2023/07/20 10:25:47;;;;;;;6.03;1.30;;;20.20;98.90;;;;;;5073456;28;20044;-60
2023/07/20 10:28:13;;;;;;;3.25;1.10;;;20.30;97.90;;;;;;5092952;28;20036;-61
2023/07/20 10:30:39;;;;;;;4.65;1.20;;;20.10;97.60;;;;;;5091258;28;20040;-61
2023/07/20 10:33:06;;;;;;;4.22;1.70;;;19.80;97.80;;;;;;5090752;28;20071;-60
2023/07/20 10:35:52;;;;;;;4.78;1.38;;;19.50;97.90;;;;;;5092706;28;20044;-61
2023/07/20 10:38:17;;;;;;;2.95;1.10;;;19.60;99.20;;;;;;5091935;28;20052;-60
2023/07/20 10:40:53;;;;;;;3.42;1.10;;;19.60;98.50;;;;;;5090758;28;20122;-61
2023/07/20 10:43:19;;;;;;;6.88;1.30;;;19.80;98.10;;;;;;5091701;28;20036;-59
2023/07/20 10:45:52;;;;;;;3.15;1.20;;;20.00;97.80;;;;;;5092256;28;20032;-60
2023/07/20 10:48:20;;;;;;;3.38;1.27;;;20.10;98.10;;;;;;5092711;28;20408;-59
2023/07/20 10:51:09;;;;;;;4.93;1.30;;;20.00;98.00;;;;;;5091962;28;20055;-59
2023/07/20 10:53:35;;;;;;;4.18;1.40;;;20.10;98.20;;;;;;5090357;28;20059;-59
2023/07/20 10:56:15;;;;;;;3.78;1.30;;;20.10;97.90;;;;;;5090982;28;20048;-59
2023/07/20 10:58:41;;;;;;;3.50;1.10;;;20.10;97.70;;;;;;5090669;28;20051;-59
2023/07/20 11:01:08;;;;;;;3.80;1.50;;;19.90;97.70;;;;;;5073493;28;20047;-59
2023/07/20 11:03:38;;;;;;;2.83;1.17;;;19.80;97.30;;;;;;5091153;28;20072;-59
2023/07/20 11:06:26;;;;;;;5.22;2.15;;;19.70;97.60;;;;;;5091057;28;20044;-59
2023/07/20 11:09:14;;;;;;;5.05;1.70;;;19.90;97.30;;;;;;5089873;28;20501;-61
2023/07/20 11:11:42;;;;;;;6.57;1.35;;;20.20;98.30;;;;;;5090041;28;20032;-60
2023/07/20 11:14:10;;;;;;;4.95;1.30;;;20.20;96.50;;;;;;5090251;28;20067;-59
2023/07/20 11:16:40;;;;;;;4.70;1.42;;;20.20;97.40;;;;;;5074046;28;20036;-59
2023/07/20 11:19:14;;;;;;;3.45;1.33;;;20.30;97.30;;;;;;5091079;28;20044;-61
2023/07/20 11:21:42;;;;;;;5.28;1.67;;;20.50;97.50;;;;;;5089929;28;20051;-61
2023/07/20 11:24:09;;;;;;;3.83;1.20;;;20.40;97.10;;;;;;5090965;28;20040;-61
2023/07/20 11:26:44;;;;;;;5.22;1.63;;;20.40;97.20;;;;;;5091036;28;20055;-61
2023/07/20 11:29:11;;;;;;;2.85;1.00;;;20.10;97.30;;;;;;5090334;28;20044;-61
2023/07/20 11:31:41;;;;;;;3.75;1.35;;;20.10;97.60;;;;;;5090649;28;20043;-61
2023/07/20 11:34:19;;;;;;;5.55;1.23;;;20.40;97.30;;;;;;5090839;28;20052;-61
2023/07/20 11:36:46;;;;;;;4.72;1.58;;;20.60;98.10;;;;;;5072550;28;20499;-61
2023/07/20 11:39:14;;;;;;;2.85;1.42;;;20.80;97.80;;;;;;5090965;28;20445;-61
2023/07/20 11:41:46;;;;;;;4.78;1.48;;;20.80;96.50;;;;;;5090645;28;20416;-61
2023/07/20 11:44:15;;;;;;;7.60;1.73;;;20.50;95.90;;;;;;5090085;28;20051;-60
2023/07/20 11:46:42;;;;;;;4.18;1.42;;;20.40;96.10;;;;;;5073251;28;20040;-61
2023/07/20 11:49:08;;;;;;;5.25;1.67;;;20.10;96.60;;;;;;5090009;28;20497;-67
2023/07/20 11:51:35;;;;;;;6.60;1.40;;;19.80;96.80;;;;;;5090929;28;20447;-67
2023/07/20 11:54:02;;;;;;;4.47;1.23;;;19.70;97.50;;;;;;5090563;28;20051;-67
2023/07/20 11:56:28;;;;;;;6.43;1.63;;;19.70;97.90;;;;;;5089481;28;20560;-67
2023/07/20 11:59:02;;;;;;;4.05;1.42;;;19.70;97.60;;;;;;5073421;28;20040;-66
2023/07/20 12:01:31;;;;;;;3.42;1.38;;;19.60;98.00;;;;;;5091768;28;20119;-66
2023/07/20 12:03:59;;;;;;;3.78;1.55;;;19.70;98.10;;;;;;5072829;28;20117;-66
2023/07/20 12:06:27;;;;;;;4.20;1.65;;;20.00;98.20;;;;;;5090754;28;20044;-66
2023/07/20 12:08:59;;;;;;;4.32;1.33;;;20.00;97.30;;;;;;5091571;28;20048;-66
2023/07/20 12:11:36;;;;;;;4.38;1.42;;;20.00;97.30;;;;;;5091070;28;20079;-66
2023/07/20 12:14:09;;;;;;;7.35;2.20;;;19.90;97.70;;;;;;5090144;28;20040;-67
2023/07/20 12:16:37;;;;;;;4.75;1.77;;;19.80;97.50;;;;;;5091378;28;20566;-67
2023/07/20 12:19:05;;;;;;;4.47;1.70;;;20.00;97.70;;;;;;5090659;28;20093;-68
2023/07/20 12:21:33;;;;;;;5.93;1.95;;;19.90;97.30;;;;;;5090256;28;20488;-68
2023/07/20 12:23:59;;;;;;;4.13;1.50;;;19.90;97.30;;;;;;5090843;28;20040;-68
2023/07/20 12:26:28;;;;;;;3.13;1.42;;;20.00;97.70;;;;;;5076414;28;20077;-68
2023/07/20 12:28:54;;;;;;;3.55;1.40;;;20.20;98.10;;;;;;5094965;28;20102;-62
2023/07/20 12:31:21;;;;;;;5.55;1.85;;;20.20;97.00;;;;;;5093542;28;20071;-66
2023/07/20 12:33:46;;;;;;;5.40;1.75;;;20.00;97.20;;;;;;5093267;28;20052;-66
2023/07/20 12:36:12;;;;;;;3.28;1.40;;;20.00;97.70;;;;;;5095321;28;20036;-65
2023/07/20 12:38:38;;;;;;;4.10;1.52;;;20.00;97.80;;;;;;5092948;28;20041;-64
2023/07/20 12:41:04;;;;;;;4.40;1.50;;;20.00;97.60;;;;;;5094680;28;20083;-65
2023/07/20 12:43:31;;;;;;;4.03;1.90;;;19.90;98.00;;;;;;5076498;28;20036;-65
2023/07/20 12:45:57;;;;;;;4.28;1.65;;;19.80;98.40;;;;;;5094291;28;20043;-62
2023/07/20 12:48:23;;;;;;;4.10;1.65;;;19.80;98.20;;;;;;5093512;28;20078;-61